Matoaca, Virginia
Current Conditions -  °F | °C
As of 3:15 AM on Tuesday 27 Jan 2015 (Local Time) from KPTB Reporting Station
Overcast Overcast  
Wind Chill: -3°   Ceiling: 6000
Heat Index:   Visibility: 10mi
Dew Point: -4°   Wind: 9mph
Humidity: 72%   Direction: 360°N
Pressure: 29.72"   Gusts: 18mph
Location:  37.2163°N, 77.4783°W
Report Text: KPTB 270815Z AUTO 36008G16KT 10SM OVC060 01/M03 A2972 RMK AO2 T00101035
Loading
Personal Weather Stations






























Interactive Weather Map New forecast layout! Learn more

10-Day Weather Forecast

Advertisements
Track Severe Weather on mobile